Station: Munchen, ICAO: EDDM, Synop: Synop: 10866,
Koordinaten: 4821'00''N 01147'00''E, Hoehe: 453m, Entfernung: 9.74km
2018/04/22 14:20
EDDM 221420Z 26005KT 220V340 CAVOK 26/06 Q1015 NOSIG


Station: Erding, ICAO: ETSE, Synop: Synop: 10869,
Koordinaten: 4819'00''N 01157'00''E, Hoehe: 462m, Entfernung: 17.80km
2015/01/30 08:20
ETSE 300820Z 27013G23KT 1600 SHSNGS FEW006 BKN023 01/M01 Q0979 REGS YLO


Station: Ingolstadt, ICAO: ETSI, Synop: Synop: 10860,
Koordinaten: 4843'00''N 01132'00''E, Hoehe: 367m, Entfernung: 36.37km
2018/04/22 13:20
ETSI 221320Z AUTO 28005KT 7000 // ////// 27/08 Q1015 ///


Station: Fuerstenfeldbruck, ICAO: ETSF, Synop: Synop: 10858,
Koordinaten: 4812'00''N 01116'00''E, Hoehe: 519m, Entfernung: 46.92km
2007/10/09 05:44
ETSF 090544Z 19001KT 1500 R27/2300D BR FEW300 04/04 Q1024 BLACKAMB AMB BECMG YLO


Station: Neuburg / Donau, ICAO: ETSN, Synop: Synop: 10853,
Koordinaten: 4843'00''N 01113'00''E, Hoehe: 380m, Entfernung: 52.44km
2018/04/22 13:20
ETSN 221320Z 24008KT 9999 FEW060 SCT320 26/08 Q1015 BLU+


Station: OBERPFAFFENHOFEN, ICAO: EDMO, Synop: ,
Koordinaten: 48 04 N 011 16 E, Hoehe: 600m, Entfernung: 56.63km
2018/04/21 17:50
EDMO 211750Z 31004KT CAVOK 23/06 Q1018


mehr Wetter
WetterInfo - adds.pl 2.6.003 DL3EL © 2004-2017 [374295]